Sitka, AK (99835)

3:54 PM AKDT on July 30, 2016 (GMT -0800)
Sitka Rocky Gutierrez | | Change Station

Elev 20 ft 57.05 °N, 135.36 °W | Updated 1 hour ago

Mostly Cloudy
Mostly Cloudy
63 °F
Feels Like 63 °F
N
8
Wind Variable Wind from West

Today
High -- | Low -- °F
--% Chance of Precip.
Yesterday
High -- | Low -- °F
Precip. -- in
Pressure 30.14 in
Visibility 10.0 miles
Clouds Mostly Cloudy 4400 ft
Dew Point 54 °F
Humidity 72%
Rainfall 0.01 in
Snow Depth Not available.
4:57 AM 9:16 PM
Waning Crescent, 10% visible
METAR PASI 302253Z AUTO 28007KT 10SM BKN044 17/12 A3014 RMK SLP206 T01720122 TSNO VIA AUTODIAL
Pressure 30.14 in
Visibility 10.0 miles
Clouds Mostly Cloudy 4400 ft
Dew Point 54 °F
Humidity 72%
Rainfall 0.01 in
Snow Depth Not available.
4:57 AM 9:16 PM
Waning Crescent, 10% visible
METAR PASI 302253Z AUTO 28007KT 10SM BKN044 17/12 A3014 RMK SLP206 T01720122 TSNO VIA AUTODIAL

10-Day Weather Forecast

Almanac

Astronomy

Jul. 30, 2016 Rise Set
Actual Time
Civil Twilight
Nautical Twilight
Astronomical Twilight
Moon
Length of Visible Light
Length of Day
Tomorrow will be .
, % of the Moon is Illuminated

Today's Extremes

State Highs State Lows

Community

WunderPhotos

Upload Photos

1,928,680 photos uploaded!

WunderBlog® & News

Nearby

Air Quality

  Air Quality AQ Index Pollutant
Not available.

Snow Depth

Station Depth Elevation

Earthquake Activity

City Distance Mag. Time & Date
Minimum magnitude displayed is 2.5.

Coastal Water Temperatures

Place Temperature

Stations

Nearby Weather Stations

Station Location Temp. Windchill Dew Point Humidity Wind Precip. Elev Updated Type
                   

Watches & Warnings

There are currently no watches in effect.